createdAt,value
2023-05-08T00:01:24.578Z,13.32
2023-05-08T00:03:52.370Z,13.26
2023-05-08T00:06:19.108Z,13.29
2023-05-08T00:08:45.640Z,13.26
2023-05-08T00:11:12.042Z,13.30
2023-05-08T00:13:38.669Z,13.33
2023-05-08T00:16:05.279Z,13.31
2023-05-08T00:18:31.727Z,13.30
2023-05-08T00:20:58.189Z,13.30
2023-05-08T00:23:24.566Z,13.33
2023-05-08T00:25:51.103Z,13.30
2023-05-08T00:28:17.581Z,13.31
2023-05-08T00:30:44.363Z,13.35
2023-05-08T00:33:11.621Z,13.32
2023-05-08T00:35:38.203Z,13.42
2023-05-08T00:38:04.617Z,13.40
2023-05-08T00:40:31.136Z,13.35
2023-05-08T00:42:57.606Z,13.36
2023-05-08T00:45:24.588Z,13.37
2023-05-08T00:47:51.365Z,13.41
2023-05-08T00:50:18.769Z,13.38
2023-05-08T00:52:46.306Z,13.38
2023-05-08T00:55:12.974Z,13.35
2023-05-08T00:57:39.991Z,13.32
2023-05-08T01:00:07.710Z,13.31
2023-05-08T01:02:35.790Z,13.33
2023-05-08T01:05:03.780Z,13.29
2023-05-08T01:07:30.304Z,13.28
2023-05-08T01:09:56.889Z,13.21
2023-05-08T01:12:38.828Z,13.18
2023-05-08T01:15:17.402Z,13.10
2023-05-08T01:18:20.230Z,13.20
2023-05-08T01:20:59.515Z,13.15
2023-05-08T01:23:52.123Z,13.24
2023-05-08T01:26:47.686Z,13.00
2023-05-08T01:29:40.587Z,13.08
2023-05-08T01:32:23.754Z,13.05
2023-05-08T01:35:07.869Z,13.01
2023-05-08T01:37:49.657Z,13.08
2023-05-08T01:40:51.481Z,13.16
2023-05-08T01:43:33.182Z,13.22
2023-05-08T01:46:05.665Z,13.18
2023-05-08T01:48:35.162Z,13.15
2023-05-08T01:51:08.341Z,13.24
2023-05-08T01:53:39.338Z,13.12
2023-05-08T01:56:11.352Z,13.08
2023-05-08T01:58:39.880Z,13.18
2023-05-08T02:01:08.693Z,13.19
2023-05-08T02:03:37.952Z,13.00
2023-05-08T02:06:08.126Z,12.98
2023-05-08T02:08:36.050Z,13.11
2023-05-08T02:11:05.706Z,13.14
2023-05-08T02:13:35.146Z,13.19
2023-05-08T02:16:03.131Z,13.10
2023-05-08T02:18:31.824Z,13.00
2023-05-08T02:21:01.256Z,12.95
2023-05-08T02:23:28.507Z,12.80
2023-05-08T02:25:56.397Z,12.67
2023-05-08T02:28:24.458Z,12.53
2023-05-08T02:30:52.621Z,12.40
2023-05-08T02:33:20.667Z,12.44
2023-05-08T02:35:50.518Z,12.44
2023-05-08T02:38:21.214Z,12.42
2023-05-08T02:40:52.205Z,12.51
2023-05-08T02:43:19.106Z,12.68
2023-05-08T02:45:52.334Z,12.64
2023-05-08T02:48:56.069Z,12.70
2023-05-08T02:52:18.392Z,12.74
2023-05-08T02:55:00.251Z,12.81
2023-05-08T02:57:39.811Z,12.81
2023-05-08T03:00:09.574Z,12.87
2023-05-08T03:02:43.013Z,12.90
2023-05-08T03:05:49.299Z,12.91
2023-05-08T03:08:19.483Z,12.75
2023-05-08T03:10:50.956Z,12.98
2023-05-08T03:13:20.230Z,12.98
2023-05-08T03:15:57.473Z,12.79
2023-05-08T03:18:31.152Z,12.84
2023-05-08T03:21:00.253Z,12.94
2023-05-08T03:23:30.566Z,12.95
2023-05-08T03:25:59.180Z,12.94
2023-05-08T03:28:27.811Z,12.93
2023-05-08T03:30:57.342Z,12.96
2023-05-08T03:33:24.859Z,13.01
2023-05-08T03:35:53.651Z,12.89
2023-05-08T03:38:22.144Z,12.88
2023-05-08T03:40:49.287Z,12.62
2023-05-08T03:43:17.422Z,12.83
2023-05-08T03:45:45.475Z,12.90
2023-05-08T03:48:14.069Z,12.81
2023-05-08T03:50:41.664Z,12.84
2023-05-08T03:53:09.805Z,12.76
2023-05-08T03:55:37.469Z,12.83
2023-05-08T03:58:18.449Z,12.80
2023-05-08T04:00:56.839Z,12.73
2023-05-08T04:03:38.072Z,12.72
2023-05-08T04:06:15.976Z,12.74
2023-05-08T04:09:19.602Z,12.72
2023-05-08T04:11:59.251Z,12.81
2023-05-08T04:14:30.439Z,12.80
2023-05-08T04:17:05.723Z,12.77
2023-05-08T04:19:36.193Z,12.20
2023-05-08T04:22:08.707Z,12.72
2023-05-08T04:24:43.071Z,12.75
2023-05-08T04:27:10.148Z,12.49
2023-05-08T04:29:37.380Z,12.81
2023-05-08T04:32:05.908Z,12.86
2023-05-08T04:34:34.418Z,12.89
2023-05-08T04:37:01.174Z,12.89
2023-05-08T04:39:28.070Z,12.85
2023-05-08T04:41:55.713Z,12.91
2023-05-08T04:44:22.307Z,12.91
2023-05-08T04:46:50.122Z,12.93
2023-05-08T04:49:17.229Z,12.91
2023-05-08T04:51:43.658Z,12.92
2023-05-08T04:54:10.111Z,12.88
2023-05-08T04:56:36.943Z,12.80
2023-05-08T04:59:03.472Z,12.76
2023-05-08T05:01:29.923Z,12.87
2023-05-08T05:03:56.441Z,12.92
2023-05-08T05:06:22.953Z,12.99
2023-05-08T05:08:49.359Z,13.01
2023-05-08T05:11:15.829Z,12.97
2023-05-08T05:13:42.368Z,12.92
2023-05-08T05:16:09.060Z,12.94
2023-05-08T05:18:35.572Z,12.88
2023-05-08T05:21:02.138Z,12.99
2023-05-08T05:23:29.630Z,13.01
2023-05-08T05:25:56.360Z,13.06
2023-05-08T05:28:22.833Z,13.03
2023-05-08T05:30:49.303Z,12.99
2023-05-08T05:33:15.778Z,12.99
2023-05-08T05:35:44.441Z,13.02
2023-05-08T05:38:11.336Z,12.89
2023-05-08T05:40:37.905Z,12.98
2023-05-08T05:43:04.375Z,13.04
2023-05-08T05:45:33.205Z,13.10
2023-05-08T05:48:00.476Z,13.08
2023-05-08T05:50:28.214Z,13.02
2023-05-08T05:52:56.316Z,13.01
2023-05-08T05:55:23.078Z,13.04
2023-05-08T05:57:49.987Z,13.00
2023-05-08T06:00:17.957Z,13.02
2023-05-08T06:02:51.544Z,13.01
2023-05-08T06:05:19.586Z,13.09
2023-05-08T06:07:46.364Z,13.02
2023-05-08T06:10:13.296Z,13.08
2023-05-08T06:12:39.959Z,13.20
2023-05-08T06:15:07.871Z,13.23
2023-05-08T06:17:34.451Z,13.24
2023-05-08T06:20:01.400Z,13.25
2023-05-08T06:22:29.257Z,13.31
2023-05-08T06:24:57.261Z,13.35
2023-05-08T06:27:23.870Z,13.43
2023-05-08T06:29:52.901Z,13.40
2023-05-08T06:32:20.325Z,13.45
2023-05-08T06:34:46.809Z,13.41
2023-05-08T06:37:13.265Z,13.27
2023-05-08T06:39:39.762Z,13.38
2023-05-08T06:42:08.063Z,13.38
2023-05-08T06:44:38.323Z,13.41
2023-05-08T06:47:04.873Z,13.56
2023-05-08T06:49:31.332Z,13.11
2023-05-08T06:51:58.199Z,13.65
2023-05-08T06:54:24.900Z,13.75
2023-05-08T06:56:52.784Z,13.82
2023-05-08T06:59:19.228Z,13.85
2023-05-08T07:01:45.742Z,13.83
2023-05-08T07:04:12.432Z,13.73
2023-05-08T07:06:38.904Z,13.78
2023-05-08T07:09:05.350Z,13.84
2023-05-08T07:11:31.760Z,13.87
2023-05-08T07:13:58.227Z,13.61
2023-05-08T07:16:24.757Z,13.34
2023-05-08T07:18:51.207Z,12.94
2023-05-08T07:21:20.105Z,12.88
2023-05-08T07:23:47.927Z,12.76
2023-05-08T07:26:14.569Z,12.74
2023-05-08T07:28:41.017Z,12.61
2023-05-08T07:31:07.525Z,12.58
2023-05-08T07:33:34.573Z,12.69
2023-05-08T07:36:01.322Z,12.82
2023-05-08T07:38:27.766Z,12.92
2023-05-08T07:40:57.156Z,13.04
2023-05-08T07:43:24.137Z,13.11
2023-05-08T07:45:51.173Z,13.19
2023-05-08T07:48:17.575Z,12.89
2023-05-08T07:50:44.712Z,13.22
2023-05-08T07:53:11.224Z,13.18
2023-05-08T07:55:37.594Z,13.05
2023-05-08T07:58:04.034Z,12.50
2023-05-08T08:00:31.405Z,13.01
2023-05-08T08:02:58.084Z,12.98
2023-05-08T08:05:24.899Z,13.02
2023-05-08T08:07:51.382Z,13.02
2023-05-08T08:10:17.878Z,13.20
2023-05-08T08:12:44.395Z,12.96
2023-05-08T08:15:11.312Z,12.93
2023-05-08T08:17:38.096Z,13.11
2023-05-08T08:20:05.187Z,13.09
2023-05-08T08:22:31.632Z,13.19
2023-05-08T08:24:58.038Z,13.19
2023-05-08T08:27:24.479Z,13.26
2023-05-08T08:29:52.632Z,13.38
2023-05-08T08:32:25.205Z,13.28
2023-05-08T08:34:51.740Z,13.34
2023-05-08T08:37:18.656Z,13.36
2023-05-08T08:39:45.263Z,13.25
2023-05-08T08:42:12.342Z,13.31
2023-05-08T08:44:40.050Z,13.31
2023-05-08T08:47:10.301Z,13.26
2023-05-08T08:49:43.053Z,13.02
2023-05-08T08:52:21.341Z,12.82
2023-05-08T08:54:50.457Z,12.64
2023-05-08T08:57:18.974Z,12.95
2023-05-08T08:59:45.651Z,13.00
2023-05-08T09:02:17.720Z,12.72
2023-05-08T09:04:44.617Z,12.63
2023-05-08T09:07:12.352Z,12.63
2023-05-08T09:09:41.087Z,12.69
2023-05-08T09:12:07.849Z,12.85
2023-05-08T09:14:34.289Z,12.84
2023-05-08T09:17:00.875Z,12.86
2023-05-08T09:19:29.114Z,12.88
2023-05-08T09:21:59.576Z,12.90
2023-05-08T09:24:29.105Z,13.02
2023-05-08T09:26:57.200Z,13.03
2023-05-08T09:29:23.588Z,13.04
2023-05-08T09:31:52.214Z,13.02
2023-05-08T09:34:28.013Z,12.92
2023-05-08T09:37:14.895Z,12.86
2023-05-08T09:39:43.170Z,12.65
2023-05-08T09:42:10.068Z,12.80
2023-05-08T09:44:50.263Z,12.79
2023-05-08T09:47:21.974Z,12.98
2023-05-08T09:50:04.112Z,13.03
2023-05-08T09:52:31.865Z,13.13
2023-05-08T09:55:00.512Z,13.11
2023-05-08T09:57:27.522Z,12.97
2023-05-08T10:00:07.414Z,13.15
2023-05-08T10:02:34.556Z,13.18
2023-05-08T10:05:01.555Z,13.08
2023-05-08T10:07:33.179Z,13.08
2023-05-08T10:10:01.696Z,13.02
2023-05-08T10:12:29.570Z,12.99
2023-05-08T10:14:56.562Z,13.01
2023-05-08T10:17:47.701Z,13.17
2023-05-08T10:20:15.907Z,13.03
2023-05-08T10:22:43.811Z,13.19
2023-05-08T10:25:17.658Z,13.29
2023-05-08T10:28:13.320Z,13.50
2023-05-08T10:30:44.681Z,13.21
2023-05-08T10:33:15.290Z,13.51
2023-05-08T10:35:42.197Z,13.52
2023-05-08T10:38:09.690Z,13.62
2023-05-08T10:40:37.864Z,13.56
2023-05-08T10:43:06.941Z,13.58
2023-05-08T10:45:34.489Z,13.35
2023-05-08T10:48:13.954Z,13.57
2023-05-08T10:50:58.977Z,13.61
2023-05-08T10:53:38.832Z,13.65
2023-05-08T10:56:05.784Z,13.67
2023-05-08T10:58:34.222Z,13.74
2023-05-08T11:01:00.638Z,13.71
2023-05-08T11:03:32.782Z,13.72
2023-05-08T11:06:01.185Z,13.72
2023-05-08T11:08:29.427Z,13.13
2023-05-08T11:10:58.626Z,13.80
2023-05-08T11:13:33.546Z,13.81
2023-05-08T11:16:00.518Z,13.84
2023-05-08T11:18:32.522Z,14.01
2023-05-08T11:21:06.628Z,14.21
2023-05-08T11:23:34.569Z,14.42
2023-05-08T11:26:02.379Z,14.59
2023-05-08T11:28:33.301Z,14.62
2023-05-08T11:31:05.566Z,14.71
2023-05-08T11:33:33.683Z,14.61
2023-05-08T11:36:13.159Z,14.84
2023-05-08T11:38:40.819Z,15.02
2023-05-08T11:41:20.044Z,15.20
2023-05-08T11:44:04.831Z,15.20
2023-05-08T11:46:42.844Z,15.32
2023-05-08T11:49:16.782Z,15.50
2023-05-08T11:51:46.065Z,15.57
2023-05-08T11:54:18.264Z,15.65
2023-05-08T11:56:52.696Z,15.55
2023-05-08T11:59:19.581Z,15.61
2023-05-08T12:02:07.076Z,15.73
2023-05-08T12:04:47.172Z,15.72
2023-05-08T12:07:14.058Z,15.11
2023-05-08T12:09:40.723Z,15.15
2023-05-08T12:12:07.327Z,14.96
2023-05-08T12:14:34.678Z,14.88
2023-05-08T12:17:02.688Z,14.89
2023-05-08T12:19:29.179Z,14.90
2023-05-08T12:21:57.172Z,14.61
2023-05-08T12:24:26.080Z,14.74
2023-05-08T12:26:56.483Z,14.73
2023-05-08T12:29:24.161Z,14.58
2023-05-08T12:31:52.533Z,15.02
2023-05-08T12:34:20.249Z,15.01
2023-05-08T12:36:47.749Z,15.08
2023-05-08T12:39:16.412Z,15.00
2023-05-08T12:41:52.887Z,15.11
2023-05-08T12:44:24.031Z,15.13
2023-05-08T12:46:52.063Z,15.01
2023-05-08T12:49:29.901Z,15.30
2023-05-08T12:52:07.541Z,15.16
2023-05-08T12:54:36.153Z,15.09
2023-05-08T12:57:09.076Z,15.47
2023-05-08T12:59:35.617Z,15.62
2023-05-08T13:02:02.113Z,15.67
2023-05-08T13:04:29.842Z,15.76
2023-05-08T13:06:57.256Z,15.69
2023-05-08T13:09:24.098Z,15.66
2023-05-08T13:11:50.535Z,15.82
2023-05-08T13:14:16.929Z,16.11
2023-05-08T13:16:44.973Z,15.88
2023-05-08T13:19:11.675Z,15.60
2023-05-08T13:21:38.836Z,15.47
2023-05-08T13:24:05.589Z,15.32
2023-05-08T13:26:32.063Z,15.07
2023-05-08T13:28:58.464Z,14.89
2023-05-08T13:31:25.003Z,14.59
2023-05-08T13:33:51.464Z,14.38
2023-05-08T13:36:17.885Z,14.30
2023-05-08T13:38:44.323Z,14.19
2023-05-08T13:41:10.746Z,14.30
2023-05-08T13:43:37.136Z,14.41
2023-05-08T13:46:04.824Z,14.40
2023-05-08T13:48:33.305Z,14.24
2023-05-08T13:50:59.686Z,14.18
2023-05-08T13:53:26.451Z,14.25
2023-05-08T13:55:52.918Z,14.40
2023-05-08T13:58:19.340Z,14.14
2023-05-08T14:00:49.937Z,14.14
2023-05-08T14:03:16.464Z,14.37
2023-05-08T14:05:42.919Z,14.47
2023-05-08T14:08:10.866Z,13.35
2023-05-08T14:10:37.348Z,14.80
2023-05-08T14:13:03.929Z,14.91
2023-05-08T14:15:37.022Z,14.97
2023-05-08T14:18:04.282Z,14.87
2023-05-08T14:20:30.907Z,14.72
2023-05-08T14:23:00.028Z,14.65
2023-05-08T14:25:26.967Z,14.55
2023-05-08T14:27:53.520Z,14.69
2023-05-08T14:30:19.922Z,14.64
2023-05-08T14:32:46.622Z,14.87
2023-05-08T14:35:14.429Z,14.56
2023-05-08T14:37:41.030Z,14.52
2023-05-08T14:40:08.816Z,14.63
2023-05-08T14:42:36.254Z,14.86
2023-05-08T14:45:02.747Z,15.01
2023-05-08T14:47:30.090Z,15.16
2023-05-08T14:49:56.653Z,15.15
2023-05-08T14:52:23.085Z,15.10
2023-05-08T14:54:53.070Z,15.29
2023-05-08T14:57:20.626Z,15.39
2023-05-08T14:59:55.050Z,15.73
2023-05-08T15:02:23.447Z,15.74
2023-05-08T15:04:50.027Z,15.84
2023-05-08T15:07:16.428Z,15.68
2023-05-08T15:09:42.945Z,15.82
2023-05-08T15:12:09.483Z,15.85
2023-05-08T15:14:35.984Z,16.06
2023-05-08T15:17:02.619Z,16.21
2023-05-08T15:19:29.049Z,16.40
2023-05-08T15:21:55.551Z,16.35
2023-05-08T15:24:21.984Z,16.26
2023-05-08T15:26:48.436Z,16.47
2023-05-08T15:29:14.836Z,16.51
2023-05-08T15:31:41.302Z,16.63
2023-05-08T15:34:08.889Z,16.65
2023-05-08T15:36:35.334Z,16.73
2023-05-08T15:39:01.794Z,16.67
2023-05-08T15:41:28.232Z,16.63
2023-05-08T15:43:54.693Z,16.64
2023-05-08T15:46:21.221Z,16.79
2023-05-08T15:48:48.289Z,16.64
2023-05-08T15:51:14.817Z,16.48
2023-05-08T15:53:41.440Z,16.53
2023-05-08T15:56:07.858Z,16.53
2023-05-08T15:58:36.536Z,16.60
2023-05-08T16:01:04.766Z,16.73
2023-05-08T16:03:31.983Z,16.69
2023-05-08T16:05:58.477Z,16.82
2023-05-08T16:08:24.945Z,16.89
2023-05-08T16:10:54.223Z,16.41
2023-05-08T16:13:20.824Z,16.47
2023-05-08T16:15:47.593Z,16.36
2023-05-08T16:18:14.086Z,16.37
2023-05-08T16:20:41.669Z,16.37
2023-05-08T16:23:08.356Z,16.35
2023-05-08T16:25:34.834Z,16.51
2023-05-08T16:28:01.276Z,16.57
2023-05-08T16:30:27.651Z,16.36
2023-05-08T16:32:54.191Z,16.12
2023-05-08T16:35:20.764Z,16.14
2023-05-08T16:37:47.234Z,16.16
2023-05-08T16:40:13.933Z,15.95
2023-05-08T16:42:40.436Z,16.14
2023-05-08T16:45:07.986Z,16.21
2023-05-08T16:47:35.056Z,16.08
2023-05-08T16:50:01.522Z,16.23
2023-05-08T16:52:27.958Z,16.34
2023-05-08T16:54:54.435Z,16.27
2023-05-08T16:57:20.864Z,16.30
2023-05-08T16:59:47.270Z,16.43
2023-05-08T17:02:18.539Z,16.41
2023-05-08T17:04:48.882Z,16.44
2023-05-08T17:07:15.819Z,16.38
2023-05-08T17:09:42.377Z,16.40
2023-05-08T17:12:09.277Z,16.32
2023-05-08T17:14:36.919Z,16.43
2023-05-08T17:17:03.355Z,16.32
2023-05-08T17:19:29.838Z,16.20
2023-05-08T17:21:58.175Z,16.17
2023-05-08T17:24:26.087Z,16.23
2023-05-08T17:26:52.492Z,16.02
2023-05-08T17:29:18.885Z,16.03
2023-05-08T17:31:45.319Z,16.05
2023-05-08T17:34:11.807Z,16.04
2023-05-08T17:36:38.496Z,15.55
2023-05-08T17:39:05.071Z,15.95
2023-05-08T17:41:31.529Z,15.98
2023-05-08T17:43:58.025Z,16.02
2023-05-08T17:46:24.540Z,16.03
2023-05-08T17:48:50.967Z,16.07
2023-05-08T17:51:17.395Z,16.00
2023-05-08T17:53:44.103Z,15.99
2023-05-08T17:56:10.954Z,16.04
2023-05-08T17:58:37.357Z,15.99
2023-05-08T18:01:03.850Z,15.95
2023-05-08T18:03:31.735Z,15.94
2023-05-08T18:05:58.215Z,15.95
2023-05-08T18:08:24.662Z,15.94
2023-05-08T18:10:51.171Z,15.90
2023-05-08T18:13:17.745Z,15.88
2023-05-08T18:15:44.340Z,15.79
2023-05-08T18:18:10.934Z,15.79
2023-05-08T18:20:37.429Z,15.45
2023-05-08T18:23:03.904Z,15.73
2023-05-08T18:25:30.488Z,15.62
2023-05-08T18:27:58.987Z,15.23
2023-05-08T18:30:25.429Z,15.15
2023-05-08T18:32:53.183Z,15.11
2023-05-08T18:35:21.570Z,14.93
2023-05-08T18:37:48.122Z,14.91
2023-05-08T18:40:14.961Z,15.03
2023-05-08T18:42:41.637Z,14.95
2023-05-08T18:45:08.889Z,15.13
2023-05-08T18:47:35.531Z,15.13
2023-05-08T18:50:02.199Z,15.11
2023-05-08T18:52:29.001Z,15.07
2023-05-08T18:54:55.507Z,14.98
2023-05-08T18:57:22.095Z,14.97
2023-05-08T18:59:50.294Z,14.94
2023-05-08T19:02:16.742Z,14.94
2023-05-08T19:04:43.250Z,14.93
2023-05-08T19:07:09.752Z,14.92
2023-05-08T19:09:36.233Z,14.81
2023-05-08T19:12:02.756Z,14.80
2023-05-08T19:14:29.155Z,14.76
2023-05-08T19:16:58.285Z,14.80
2023-05-08T19:19:25.002Z,14.75
2023-05-08T19:21:52.589Z,14.69
2023-05-08T19:24:20.822Z,14.42
2023-05-08T19:26:47.465Z,14.61
2023-05-08T19:29:13.848Z,14.57
2023-05-08T19:31:40.469Z,14.57
2023-05-08T19:34:07.092Z,14.62
2023-05-08T19:36:35.494Z,14.84
2023-05-08T19:39:03.636Z,14.84
2023-05-08T19:41:30.158Z,14.76
2023-05-08T19:43:56.577Z,14.73
2023-05-08T19:46:23.151Z,14.69
2023-05-08T19:48:49.659Z,14.61
2023-05-08T19:51:16.613Z,14.64
2023-05-08T19:53:43.165Z,14.66
2023-05-08T19:56:09.614Z,14.67
2023-05-08T19:58:36.062Z,14.63
2023-05-08T20:01:02.671Z,14.52
2023-05-08T20:03:29.312Z,14.27
2023-05-08T20:05:55.919Z,14.21
2023-05-08T20:08:22.429Z,14.15
2023-05-08T20:10:49.127Z,14.05
2023-05-08T20:13:16.978Z,13.94
2023-05-08T20:15:43.625Z,13.84
2023-05-08T20:18:10.280Z,13.85
2023-05-08T20:20:36.777Z,13.76
2023-05-08T20:23:03.303Z,13.58
2023-05-08T20:25:29.783Z,13.71
2023-05-08T20:27:56.239Z,13.61
2023-05-08T20:30:23.863Z,13.70
2023-05-08T20:32:50.589Z,13.56
2023-05-08T20:35:17.081Z,13.55
2023-05-08T20:37:44.922Z,13.56
2023-05-08T20:40:11.981Z,13.54
2023-05-08T20:42:40.536Z,13.45
2023-05-08T20:45:10.289Z,12.99
2023-05-08T20:47:36.812Z,13.13
2023-05-08T20:50:03.809Z,13.27
2023-05-08T20:52:32.171Z,13.33
2023-05-08T20:54:59.265Z,13.27
2023-05-08T20:57:25.880Z,13.32
2023-05-08T20:59:52.385Z,13.41
2023-05-08T21:02:18.830Z,13.36
2023-05-08T21:04:45.334Z,13.29
2023-05-08T21:07:11.856Z,13.28
2023-05-08T21:09:38.331Z,13.27
2023-05-08T21:12:04.921Z,12.99
2023-05-08T21:14:31.385Z,13.06
2023-05-08T21:16:57.828Z,13.01
2023-05-08T21:19:24.338Z,13.02
2023-05-08T21:21:50.823Z,12.98
2023-05-08T21:24:17.480Z,13.06
2023-05-08T21:26:43.890Z,12.67
2023-05-08T21:29:10.903Z,12.44
2023-05-08T21:31:37.450Z,12.53
2023-05-08T21:34:04.037Z,12.58
2023-05-08T21:36:32.014Z,12.62
2023-05-08T21:38:58.521Z,12.58
2023-05-08T21:41:25.071Z,12.62
2023-05-08T21:43:51.481Z,12.55
2023-05-08T21:46:17.962Z,12.43
2023-05-08T21:48:44.406Z,12.38
2023-05-08T21:51:10.911Z,12.32
2023-05-08T21:53:37.449Z,12.30
2023-05-08T21:56:04.182Z,12.35
2023-05-08T21:58:30.695Z,11.81
2023-05-08T22:00:58.678Z,12.56
2023-05-08T22:03:25.642Z,12.63
2023-05-08T22:05:52.244Z,12.51
2023-05-08T22:08:18.715Z,12.44
2023-05-08T22:10:46.142Z,12.49
2023-05-08T22:13:13.252Z,12.58
2023-05-08T22:15:39.769Z,12.54
2023-05-08T22:18:06.322Z,12.52
2023-05-08T22:20:33.322Z,12.51
2023-05-08T22:22:59.771Z,12.44
2023-05-08T22:25:26.711Z,12.38
2023-05-08T22:27:53.272Z,12.32
2023-05-08T22:30:19.848Z,12.23
2023-05-08T22:32:53.935Z,12.14
2023-05-08T22:35:22.465Z,11.92
2023-05-08T22:37:48.893Z,11.99
2023-05-08T22:40:15.412Z,11.95
2023-05-08T22:42:42.363Z,11.99
2023-05-08T22:45:09.865Z,11.97
2023-05-08T22:47:36.439Z,11.94
2023-05-08T22:50:08.292Z,12.03
2023-05-08T22:52:36.182Z,11.90
2023-05-08T22:55:03.247Z,12.07
2023-05-08T22:57:29.723Z,12.00
2023-05-08T22:59:56.252Z,12.02
2023-05-08T23:02:22.879Z,11.98
2023-05-08T23:04:49.513Z,11.76
2023-05-08T23:07:16.092Z,12.02
2023-05-08T23:09:42.473Z,12.05
2023-05-08T23:12:08.943Z,12.11
2023-05-08T23:14:35.492Z,12.17
2023-05-08T23:17:02.110Z,11.96
2023-05-08T23:19:28.642Z,11.96
2023-05-08T23:21:55.071Z,12.02
2023-05-08T23:24:21.545Z,12.02
2023-05-08T23:26:49.580Z,11.89
2023-05-08T23:29:16.032Z,11.80
2023-05-08T23:31:42.480Z,11.77
2023-05-08T23:34:09.166Z,11.84
2023-05-08T23:36:35.845Z,11.84
2023-05-08T23:39:02.397Z,11.92
2023-05-08T23:41:28.903Z,11.76
2023-05-08T23:43:55.957Z,11.80
2023-05-08T23:46:22.410Z,11.43
2023-05-08T23:48:48.883Z,11.59
2023-05-08T23:51:15.300Z,11.53
2023-05-08T23:53:42.292Z,11.62
2023-05-08T23:56:08.766Z,10.92
2023-05-08T23:58:35.225Z,11.32
